sensor_id;sensor_type;location;lat;lon;timestamp;P1;durP1;ratioP1;P2;durP2;ratioP2
84523;SDS011;74765;44.538;18.668;2024-03-08T00:01:30;40.58;;;21.55;;
84523;SDS011;74765;44.538;18.668;2024-03-08T00:03:57;43.60;;;22.83;;
84523;SDS011;74765;44.538;18.668;2024-03-08T00:06:23;48.03;;;25.27;;
84523;SDS011;74765;44.538;18.668;2024-03-08T00:08:50;42.83;;;22.25;;
84523;SDS011;74765;44.538;18.668;2024-03-08T00:11:16;42.42;;;22.40;;
84523;SDS011;74765;44.538;18.668;2024-03-08T00:13:41;45.70;;;24.95;;
84523;SDS011;74765;44.538;18.668;2024-03-08T00:16:07;49.10;;;25.25;;
84523;SDS011;74765;44.538;18.668;2024-03-08T00:18:34;50.90;;;27.02;;
84523;SDS011;74765;44.538;18.668;2024-03-08T00:21:00;52.63;;;26.27;;
84523;SDS011;74765;44.538;18.668;2024-03-08T00:23:26;50.63;;;26.63;;
84523;SDS011;74765;44.538;18.668;2024-03-08T00:25:53;46.53;;;24.10;;
84523;SDS011;74765;44.538;18.668;2024-03-08T00:28:21;45.63;;;24.75;;
84523;SDS011;74765;44.538;18.668;2024-03-08T00:30:47;52.63;;;27.42;;
84523;SDS011;74765;44.538;18.668;2024-03-08T00:33:12;52.83;;;26.33;;
84523;SDS011;74765;44.538;18.668;2024-03-08T00:35:38;50.03;;;26.33;;
84523;SDS011;74765;44.538;18.668;2024-03-08T00:38:04;54.17;;;26.83;;
84523;SDS011;74765;44.538;18.668;2024-03-08T00:40:30;52.30;;;27.45;;
84523;SDS011;74765;44.538;18.668;2024-03-08T00:42:56;59.25;;;31.23;;
84523;SDS011;74765;44.538;18.668;2024-03-08T00:45:21;57.72;;;29.88;;
84523;SDS011;74765;44.538;18.668;2024-03-08T00:47:48;52.00;;;28.95;;
84523;SDS011;74765;44.538;18.668;2024-03-08T00:50:14;55.70;;;26.98;;
84523;SDS011;74765;44.538;18.668;2024-03-08T00:52:40;56.83;;;27.90;;
84523;SDS011;74765;44.538;18.668;2024-03-08T00:55:06;66.75;;;32.15;;
84523;SDS011;74765;44.538;18.668;2024-03-08T00:57:35;70.20;;;35.13;;
84523;SDS011;74765;44.538;18.668;2024-03-08T01:00:03;67.80;;;32.95;;
84523;SDS011;74765;44.538;18.668;2024-03-08T01:02:32;77.18;;;36.15;;
84523;SDS011;74765;44.538;18.668;2024-03-08T01:05:00;75.03;;;35.38;;
84523;SDS011;74765;44.538;18.668;2024-03-08T01:07:25;74.43;;;36.38;;
84523;SDS011;74765;44.538;18.668;2024-03-08T01:09:51;67.13;;;34.03;;
84523;SDS011;74765;44.538;18.668;2024-03-08T01:12:17;65.38;;;33.65;;
84523;SDS011;74765;44.538;18.668;2024-03-08T01:14:43;68.68;;;32.65;;
84523;SDS011;74765;44.538;18.668;2024-03-08T01:17:08;62.33;;;31.60;;
84523;SDS011;74765;44.538;18.668;2024-03-08T01:19:35;57.28;;;30.08;;
84523;SDS011;74765;44.538;18.668;2024-03-08T01:22:01;56.10;;;29.42;;
84523;SDS011;74765;44.538;18.668;2024-03-08T01:24:27;53.75;;;26.17;;
84523;SDS011;74765;44.538;18.668;2024-03-08T01:26:53;51.33;;;26.65;;
84523;SDS011;74765;44.538;18.668;2024-03-08T01:29:19;54.75;;;27.77;;
84523;SDS011;74765;44.538;18.668;2024-03-08T01:31:45;52.85;;;27.45;;
84523;SDS011;74765;44.538;18.668;2024-03-08T01:34:11;50.28;;;26.55;;
84523;SDS011;74765;44.538;18.668;2024-03-08T01:36:36;48.00;;;25.67;;
84523;SDS011;74765;44.538;18.668;2024-03-08T01:39:05;57.28;;;27.58;;
84523;SDS011;74765;44.538;18.668;2024-03-08T01:41:33;56.28;;;28.95;;
84523;SDS011;74765;44.538;18.668;2024-03-08T01:44:01;51.67;;;26.45;;
84523;SDS011;74765;44.538;18.668;2024-03-08T01:46:27;57.80;;;28.48;;
84523;SDS011;74765;44.538;18.668;2024-03-08T01:48:54;54.13;;;26.80;;
84523;SDS011;74765;44.538;18.668;2024-03-08T01:51:20;60.00;;;30.20;;
84523;SDS011;74765;44.538;18.668;2024-03-08T01:53:47;76.85;;;34.55;;
84523;SDS011;74765;44.538;18.668;2024-03-08T01:56:13;58.47;;;31.05;;
84523;SDS011;74765;44.538;18.668;2024-03-08T01:58:40;58.45;;;30.10;;
84523;SDS011;74765;44.538;18.668;2024-03-08T02:01:08;54.22;;;28.15;;
84523;SDS011;74765;44.538;18.668;2024-03-08T02:03:36;55.58;;;28.60;;
84523;SDS011;74765;44.538;18.668;2024-03-08T02:06:02;55.35;;;28.60;;
84523;SDS011;74765;44.538;18.668;2024-03-08T02:08:30;63.55;;;28.17;;
84523;SDS011;74765;44.538;18.668;2024-03-08T02:10:56;51.38;;;27.75;;
84523;SDS011;74765;44.538;18.668;2024-03-08T02:13:22;57.22;;;29.55;;
84523;SDS011;74765;44.538;18.668;2024-03-08T02:15:55;63.58;;;30.77;;
84523;SDS011;74765;44.538;18.668;2024-03-08T02:18:25;64.32;;;32.35;;
84523;SDS011;74765;44.538;18.668;2024-03-08T02:20:53;57.92;;;29.00;;
84523;SDS011;74765;44.538;18.668;2024-03-08T02:23:22;62.13;;;29.88;;
84523;SDS011;74765;44.538;18.668;2024-03-08T02:25:50;62.38;;;31.88;;
84523;SDS011;74765;44.538;18.668;2024-03-08T02:28:16;69.95;;;31.65;;
84523;SDS011;74765;44.538;18.668;2024-03-08T02:30:48;73.43;;;33.60;;
84523;SDS011;74765;44.538;18.668;2024-03-08T02:33:16;105.47;;;40.85;;
84523;SDS011;74765;44.538;18.668;2024-03-08T02:35:46;98.63;;;38.85;;
84523;SDS011;74765;44.538;18.668;2024-03-08T02:38:13;95.13;;;38.80;;
84523;SDS011;74765;44.538;18.668;2024-03-08T02:40:44;66.45;;;32.38;;
84523;SDS011;74765;44.538;18.668;2024-03-08T02:43:11;65.80;;;36.25;;
84523;SDS011;74765;44.538;18.668;2024-03-08T02:45:38;65.68;;;35.17;;
84523;SDS011;74765;44.538;18.668;2024-03-08T02:48:04;65.47;;;34.60;;
84523;SDS011;74765;44.538;18.668;2024-03-08T02:50:33;67.15;;;31.90;;
84523;SDS011;74765;44.538;18.668;2024-03-08T02:53:00;52.92;;;28.23;;
84523;SDS011;74765;44.538;18.668;2024-03-08T02:55:26;51.17;;;27.77;;
84523;SDS011;74765;44.538;18.668;2024-03-08T02:57:52;58.22;;;30.00;;
84523;SDS011;74765;44.538;18.668;2024-03-08T03:00:20;57.38;;;30.48;;
84523;SDS011;74765;44.538;18.668;2024-03-08T03:02:46;62.83;;;31.13;;
84523;SDS011;74765;44.538;18.668;2024-03-08T03:05:12;57.33;;;28.27;;
84523;SDS011;74765;44.538;18.668;2024-03-08T03:07:39;59.17;;;30.98;;
84523;SDS011;74765;44.538;18.668;2024-03-08T03:10:05;52.28;;;26.70;;
84523;SDS011;74765;44.538;18.668;2024-03-08T03:12:32;54.92;;;28.25;;
84523;SDS011;74765;44.538;18.668;2024-03-08T03:14:59;59.80;;;30.02;;
84523;SDS011;74765;44.538;18.668;2024-03-08T03:17:25;72.53;;;35.05;;
84523;SDS011;74765;44.538;18.668;2024-03-08T03:19:52;69.32;;;35.90;;
84523;SDS011;74765;44.538;18.668;2024-03-08T03:22:18;76.38;;;40.17;;
84523;SDS011;74765;44.538;18.668;2024-03-08T03:24:45;73.25;;;39.28;;
84523;SDS011;74765;44.538;18.668;2024-03-08T03:27:14;66.90;;;32.28;;
84523;SDS011;74765;44.538;18.668;2024-03-08T03:29:43;82.50;;;40.42;;
84523;SDS011;74765;44.538;18.668;2024-03-08T03:32:12;91.05;;;39.72;;
84523;SDS011;74765;44.538;18.668;2024-03-08T03:34:39;67.13;;;34.08;;
84523;SDS011;74765;44.538;18.668;2024-03-08T03:37:05;67.38;;;33.63;;
84523;SDS011;74765;44.538;18.668;2024-03-08T03:39:38;61.03;;;32.15;;
84523;SDS011;74765;44.538;18.668;2024-03-08T03:42:16;65.70;;;32.72;;
84523;SDS011;74765;44.538;18.668;2024-03-08T03:44:46;74.53;;;35.72;;
84523;SDS011;74765;44.538;18.668;2024-03-08T03:47:13;79.13;;;38.60;;
84523;SDS011;74765;44.538;18.668;2024-03-08T03:49:40;71.05;;;34.63;;
84523;SDS011;74765;44.538;18.668;2024-03-08T03:52:06;73.47;;;38.03;;
84523;SDS011;74765;44.538;18.668;2024-03-08T03:54:32;75.60;;;34.90;;
84523;SDS011;74765;44.538;18.668;2024-03-08T03:56:58;72.55;;;36.65;;
84523;SDS011;74765;44.538;18.668;2024-03-08T03:59:26;75.40;;;37.13;;
84523;SDS011;74765;44.538;18.668;2024-03-08T04:01:55;82.60;;;38.50;;
84523;SDS011;74765;44.538;18.668;2024-03-08T04:04:21;79.20;;;38.88;;
84523;SDS011;74765;44.538;18.668;2024-03-08T04:06:47;73.35;;;37.08;;
84523;SDS011;74765;44.538;18.668;2024-03-08T04:09:13;82.93;;;39.83;;
84523;SDS011;74765;44.538;18.668;2024-03-08T04:11:39;78.47;;;38.28;;
84523;SDS011;74765;44.538;18.668;2024-03-08T04:14:05;88.70;;;42.70;;
84523;SDS011;74765;44.538;18.668;2024-03-08T04:16:31;74.05;;;37.35;;
84523;SDS011;74765;44.538;18.668;2024-03-08T04:18:58;67.82;;;36.45;;
84523;SDS011;74765;44.538;18.668;2024-03-08T04:21:24;68.65;;;34.83;;
84523;SDS011;74765;44.538;18.668;2024-03-08T04:23:49;76.13;;;36.30;;
84523;SDS011;74765;44.538;18.668;2024-03-08T04:26:15;69.53;;;36.75;;
84523;SDS011;74765;44.538;18.668;2024-03-08T04:28:41;66.95;;;34.53;;
84523;SDS011;74765;44.538;18.668;2024-03-08T04:31:07;71.63;;;34.17;;
84523;SDS011;74765;44.538;18.668;2024-03-08T04:33:33;61.00;;;30.23;;
84523;SDS011;74765;44.538;18.668;2024-03-08T04:36:01;56.90;;;29.45;;
84523;SDS011;74765;44.538;18.668;2024-03-08T04:38:29;62.92;;;30.80;;
84523;SDS011;74765;44.538;18.668;2024-03-08T04:40:56;56.78;;;29.67;;
84523;SDS011;74765;44.538;18.668;2024-03-08T04:43:23;58.60;;;29.73;;
84523;SDS011;74765;44.538;18.668;2024-03-08T04:45:52;57.45;;;29.42;;
84523;SDS011;74765;44.538;18.668;2024-03-08T04:48:19;57.15;;;28.88;;
84523;SDS011;74765;44.538;18.668;2024-03-08T04:50:45;58.53;;;28.65;;
84523;SDS011;74765;44.538;18.668;2024-03-08T04:53:11;60.08;;;31.00;;
84523;SDS011;74765;44.538;18.668;2024-03-08T04:55:37;74.68;;;37.08;;
84523;SDS011;74765;44.538;18.668;2024-03-08T04:58:03;98.03;;;46.03;;
84523;SDS011;74765;44.538;18.668;2024-03-08T05:02:58;101.30;;;44.33;;
84523;SDS011;74765;44.538;18.668;2024-03-08T05:05:24;108.20;;;48.97;;
84523;SDS011;74765;44.538;18.668;2024-03-08T05:07:51;92.00;;;43.85;;
84523;SDS011;74765;44.538;18.668;2024-03-08T05:10:17;68.07;;;34.25;;
84523;SDS011;74765;44.538;18.668;2024-03-08T05:12:43;61.30;;;32.72;;
84523;SDS011;74765;44.538;18.668;2024-03-08T05:15:09;67.68;;;33.20;;
84523;SDS011;74765;44.538;18.668;2024-03-08T05:17:35;65.63;;;33.67;;
84523;SDS011;74765;44.538;18.668;2024-03-08T05:20:01;70.10;;;34.58;;
84523;SDS011;74765;44.538;18.668;2024-03-08T05:22:27;75.85;;;36.85;;
84523;SDS011;74765;44.538;18.668;2024-03-08T05:24:53;82.15;;;40.72;;
84523;SDS011;74765;44.538;18.668;2024-03-08T05:27:19;78.82;;;39.08;;
84523;SDS011;74765;44.538;18.668;2024-03-08T05:29:44;66.05;;;33.88;;
84523;SDS011;74765;44.538;18.668;2024-03-08T05:32:11;72.90;;;35.00;;
84523;SDS011;74765;44.538;18.668;2024-03-08T05:34:37;103.47;;;44.03;;
84523;SDS011;74765;44.538;18.668;2024-03-08T05:37:03;207.27;;;65.80;;
84523;SDS011;74765;44.538;18.668;2024-03-08T05:39:29;98.03;;;44.60;;
84523;SDS011;74765;44.538;18.668;2024-03-08T05:41:55;75.57;;;37.92;;
84523;SDS011;74765;44.538;18.668;2024-03-08T05:44:21;91.28;;;42.08;;
84523;SDS011;74765;44.538;18.668;2024-03-08T05:46:47;75.97;;;40.25;;
84523;SDS011;74765;44.538;18.668;2024-03-08T05:49:13;85.93;;;41.53;;
84523;SDS011;74765;44.538;18.668;2024-03-08T05:51:39;87.18;;;43.67;;
84523;SDS011;74765;44.538;18.668;2024-03-08T05:54:12;82.30;;;41.67;;
84523;SDS011;74765;44.538;18.668;2024-03-08T05:56:38;97.70;;;46.92;;
84523;SDS011;74765;44.538;18.668;2024-03-08T05:59:08;100.22;;;50.03;;
84523;SDS011;74765;44.538;18.668;2024-03-08T06:01:34;105.05;;;50.03;;
84523;SDS011;74765;44.538;18.668;2024-03-08T06:04:02;98.90;;;51.05;;
84523;SDS011;74765;44.538;18.668;2024-03-08T06:06:29;105.18;;;53.90;;
84523;SDS011;74765;44.538;18.668;2024-03-08T06:08:55;99.30;;;49.80;;
84523;SDS011;74765;44.538;18.668;2024-03-08T06:11:24;108.93;;;52.08;;
84523;SDS011;74765;44.538;18.668;2024-03-08T06:13:55;86.68;;;44.22;;
84523;SDS011;74765;44.538;18.668;2024-03-08T06:16:27;101.03;;;48.95;;
84523;SDS011;74765;44.538;18.668;2024-03-08T06:18:55;100.07;;;48.28;;
84523;SDS011;74765;44.538;18.668;2024-03-08T06:21:22;97.65;;;48.03;;
84523;SDS011;74765;44.538;18.668;2024-03-08T06:23:56;70.70;;;37.25;;
84523;SDS011;74765;44.538;18.668;2024-03-08T06:26:29;57.63;;;33.17;;
84523;SDS011;74765;44.538;18.668;2024-03-08T06:28:55;71.00;;;38.83;;
84523;SDS011;74765;44.538;18.668;2024-03-08T06:31:21;55.15;;;27.98;;
84523;SDS011;74765;44.538;18.668;2024-03-08T06:33:47;49.05;;;27.77;;
84523;SDS011;74765;44.538;18.668;2024-03-08T06:36:17;49.22;;;27.35;;
84523;SDS011;74765;44.538;18.668;2024-03-08T06:38:49;60.17;;;30.00;;
84523;SDS011;74765;44.538;18.668;2024-03-08T06:41:16;88.10;;;40.35;;
84523;SDS011;74765;44.538;18.668;2024-03-08T06:43:42;77.78;;;40.00;;
84523;SDS011;74765;44.538;18.668;2024-03-08T06:46:08;98.65;;;54.00;;
84523;SDS011;74765;44.538;18.668;2024-03-08T06:48:35;68.85;;;36.20;;
84523;SDS011;74765;44.538;18.668;2024-03-08T06:51:02;75.38;;;38.47;;
84523;SDS011;74765;44.538;18.668;2024-03-08T06:53:28;115.45;;;65.82;;
84523;SDS011;74765;44.538;18.668;2024-03-08T06:55:54;87.13;;;46.17;;
84523;SDS011;74765;44.538;18.668;2024-03-08T06:58:20;74.47;;;39.28;;
84523;SDS011;74765;44.538;18.668;2024-03-08T07:00:45;90.55;;;54.47;;
84523;SDS011;74765;44.538;18.668;2024-03-08T07:03:14;95.13;;;56.42;;
84523;SDS011;74765;44.538;18.668;2024-03-08T07:05:42;70.65;;;36.33;;
84523;SDS011;74765;44.538;18.668;2024-03-08T07:08:08;69.65;;;37.53;;
84523;SDS011;74765;44.538;18.668;2024-03-08T07:10:34;60.22;;;33.13;;
84523;SDS011;74765;44.538;18.668;2024-03-08T07:13:02;60.47;;;34.75;;
84523;SDS011;74765;44.538;18.668;2024-03-08T07:15:28;59.10;;;30.80;;
84523;SDS011;74765;44.538;18.668;2024-03-08T07:17:54;55.42;;;28.73;;
84523;SDS011;74765;44.538;18.668;2024-03-08T07:20:25;57.13;;;30.17;;
84523;SDS011;74765;44.538;18.668;2024-03-08T07:23:11;50.38;;;28.40;;
84523;SDS011;74765;44.538;18.668;2024-03-08T07:26:22;57.05;;;29.75;;
84523;SDS011;74765;44.538;18.668;2024-03-08T07:28:48;57.90;;;33.25;;
84523;SDS011;74765;44.538;18.668;2024-03-08T07:31:14;76.45;;;41.15;;
84523;SDS011;74765;44.538;18.668;2024-03-08T07:34:09;69.60;;;35.20;;
84523;SDS011;74765;44.538;18.668;2024-03-08T07:36:35;69.93;;;35.60;;
84523;SDS011;74765;44.538;18.668;2024-03-08T07:39:01;76.22;;;42.58;;
84523;SDS011;74765;44.538;18.668;2024-03-08T07:41:27;98.20;;;46.97;;
84523;SDS011;74765;44.538;18.668;2024-03-08T07:43:55;72.40;;;36.20;;
84523;SDS011;74765;44.538;18.668;2024-03-08T07:46:21;67.20;;;36.83;;
84523;SDS011;74765;44.538;18.668;2024-03-08T07:48:47;65.53;;;33.97;;
84523;SDS011;74765;44.538;18.668;2024-03-08T07:51:15;54.35;;;29.25;;
84523;SDS011;74765;44.538;18.668;2024-03-08T07:53:43;56.13;;;30.23;;
84523;SDS011;74765;44.538;18.668;2024-03-08T07:56:09;59.28;;;30.30;;
84523;SDS011;74765;44.538;18.668;2024-03-08T07:58:38;66.22;;;34.60;;
84523;SDS011;74765;44.538;18.668;2024-03-08T08:01:07;64.93;;;34.35;;
84523;SDS011;74765;44.538;18.668;2024-03-08T08:03:33;75.10;;;37.47;;
84523;SDS011;74765;44.538;18.668;2024-03-08T08:06:20;76.13;;;38.40;;
84523;SDS011;74765;44.538;18.668;2024-03-08T08:08:46;69.00;;;33.50;;
84523;SDS011;74765;44.538;18.668;2024-03-08T08:11:13;68.18;;;34.97;;
84523;SDS011;74765;44.538;18.668;2024-03-08T08:13:40;87.07;;;44.95;;
84523;SDS011;74765;44.538;18.668;2024-03-08T08:16:08;82.13;;;44.15;;
84523;SDS011;74765;44.538;18.668;2024-03-08T08:18:35;60.28;;;31.27;;
84523;SDS011;74765;44.538;18.668;2024-03-08T08:21:02;64.63;;;32.22;;
84523;SDS011;74765;44.538;18.668;2024-03-08T08:23:30;44.88;;;23.55;;
84523;SDS011;74765;44.538;18.668;2024-03-08T08:26:02;38.15;;;20.63;;
84523;SDS011;74765;44.538;18.668;2024-03-08T08:28:49;37.35;;;21.70;;
84523;SDS011;74765;44.538;18.668;2024-03-08T08:31:15;43.25;;;24.85;;
84523;SDS011;74765;44.538;18.668;2024-03-08T08:33:41;38.88;;;21.75;;
84523;SDS011;74765;44.538;18.668;2024-03-08T08:36:07;36.97;;;21.10;;
84523;SDS011;74765;44.538;18.668;2024-03-08T08:38:33;41.65;;;23.30;;
84523;SDS011;74765;44.538;18.668;2024-03-08T08:41:19;50.05;;;25.33;;
84523;SDS011;74765;44.538;18.668;2024-03-08T08:43:47;43.50;;;24.38;;
84523;SDS011;74765;44.538;18.668;2024-03-08T08:46:21;33.15;;;19.08;;
84523;SDS011;74765;44.538;18.668;2024-03-08T08:48:56;28.90;;;16.85;;
84523;SDS011;74765;44.538;18.668;2024-03-08T08:51:22;31.38;;;17.48;;
84523;SDS011;74765;44.538;18.668;2024-03-08T08:53:53;31.10;;;17.38;;
84523;SDS011;74765;44.538;18.668;2024-03-08T08:56:21;34.78;;;19.98;;
84523;SDS011;74765;44.538;18.668;2024-03-08T08:58:55;36.13;;;20.83;;
84523;SDS011;74765;44.538;18.668;2024-03-08T09:01:26;39.40;;;21.25;;
84523;SDS011;74765;44.538;18.668;2024-03-08T09:03:54;40.97;;;21.60;;
84523;SDS011;74765;44.538;18.668;2024-03-08T09:06:27;40.17;;;20.65;;
84523;SDS011;74765;44.538;18.668;2024-03-08T09:08:55;33.03;;;18.63;;
84523;SDS011;74765;44.538;18.668;2024-03-08T09:11:24;34.92;;;19.90;;
84523;SDS011;74765;44.538;18.668;2024-03-08T09:14:36;41.40;;;20.50;;
84523;SDS011;74765;44.538;18.668;2024-03-08T09:17:18;31.45;;;17.80;;
84523;SDS011;74765;44.538;18.668;2024-03-08T09:19:46;29.35;;;17.85;;
84523;SDS011;74765;44.538;18.668;2024-03-08T09:22:33;36.22;;;20.15;;
84523;SDS011;74765;44.538;18.668;2024-03-08T09:25:03;36.45;;;18.40;;
84523;SDS011;74765;44.538;18.668;2024-03-08T09:27:30;29.02;;;17.08;;
84523;SDS011;74765;44.538;18.668;2024-03-08T09:29:56;30.15;;;17.73;;
84523;SDS011;74765;44.538;18.668;2024-03-08T09:32:29;29.98;;;16.95;;
84523;SDS011;74765;44.538;18.668;2024-03-08T09:37:27;29.10;;;17.02;;
84523;SDS011;74765;44.538;18.668;2024-03-08T09:39:57;25.38;;;15.88;;
84523;SDS011;74765;44.538;18.668;2024-03-08T09:42:29;29.88;;;16.52;;
84523;SDS011;74765;44.538;18.668;2024-03-08T09:44:57;27.42;;;16.83;;
84523;SDS011;74765;44.538;18.668;2024-03-08T09:47:27;26.23;;;15.35;;
84523;SDS011;74765;44.538;18.668;2024-03-08T09:50:14;27.33;;;16.30;;
84523;SDS011;74765;44.538;18.668;2024-03-08T09:52:43;25.83;;;15.77;;
84523;SDS011;74765;44.538;18.668;2024-03-08T09:55:15;27.52;;;16.10;;
84523;SDS011;74765;44.538;18.668;2024-03-08T09:57:43;27.00;;;17.55;;
84523;SDS011;74765;44.538;18.668;2024-03-08T10:00:35;25.88;;;15.88;;
84523;SDS011;74765;44.538;18.668;2024-03-08T10:03:06;26.43;;;17.07;;
84523;SDS011;74765;44.538;18.668;2024-03-08T10:05:36;24.58;;;15.15;;
84523;SDS011;74765;44.538;18.668;2024-03-08T10:08:02;26.65;;;16.35;;
